Aeroporto :







RITROVATECI SU...

 
LOGIN :

Iscrizione | Disclaimer

   EN    FR    IT 

 









Sommario :    VFR   VFR Marginale   IFR   IFR Intensivo   IFR Molto Intensivo
Visibilità : 
Base nubi : 
>= 8 km
>= 3000ft
5 / 8 km
1000 / 3000 ft
1500m / 5 km
500 / 1000 ft
800 / 1500m
200 / 500 ft
< 800m
< 200 ft
Simboli :   Temporali  Nebbia  Neve Forte  Precipitazioni Forti  Vento > 20 kt






- Altitudine del aeroporto : 1166 ft


KMPV - Edward F Knapp State

ULTIMO METAR :
  • 182305Z AUTO 18015G23KT 5SM -SN BR FEW012 OVC032 M02/M04 A2999 RMK AO2 FZRAE2259SNB04 P0000 I1000 T10221044

METARs OBSOLETI :
  • 182251Z AUTO 18011G22KT 5SM -FZRA BR OVC032 M02/M04 A3000 RMK AO2 FZRAB45 SLP180 P0000 I1002 T10221044
  • 182151Z AUTO 18014G21KT 6SM HZ BKN030 OVC036 M03/M06 A3001 RMK AO2 SNE17 SLP185 P0000 I1000 T10281056
  • 182051Z AUTO 19018G24KT 4SM -SN OVC034 M03/M06 A3004 RMK AO2 PK WND 17026/2030 SNB38 SLP196 P0000 60002 T10281056 56045

TAF KMPV
Valido dal 18 a 22 ore il 19 a 18 ore UTC


182204Z 1822/1918 18012G24KT P6SM VCSH OVC035 WS020/19045KT
TEMPO 1822/1902 4SM -SN BR OVC020
FM190400 24010KT P6SM OVC070
FM191500 28015G25KT P6SM BKN040



MetMap, La meteo Aeronautica in un colpo d'occhio ! - Copyright ORBIFLY Dicembre 2007 - Disclaimer

ORBIFLY MET'MAP TEAM :

Programmazione e sviluppo : Alexandra Zaïnal
Concezione : Baudouin d'Aumeries
Aiuto per la programmazione : Marc-Olivier Méhu
Supporto tecnico e logistico : Manuel Goepfert
Aiuto per la traduzione : Arnaldo La Scala

Contatto : metmap@orbifly.com




FONTI E CREDITI :

   NOAA